Time;durP1;ratioP1;P1;durP2;ratioP2;P2;SDS_P1;SDS_P2;PMS_P1;PMS_P2;Temp;Humidity;BMP_temperature;BMP_pressure;BME280_temperature;BME280_humidity;BME280_pressure;Samples;Min_cycle;Max_cycle;Signal;HPM_P1;HPM_P2
2022/04/20 00:03:05;;;;;;;14.65;8.43;;;;;;;;;;8400617;28;20484;-80
2022/04/20 00:07:09;;;;;;;15.55;8.57;;;;;;;;;;8578551;22;20103;-83
2022/04/20 00:11:12;;;;;;;18.45;8.55;;;;;;;;;;8334558;28;20467;-79
2022/04/20 00:15:14;;;;;;;16.50;8.20;;;;;;;;;;8333904;28;20045;-86
2022/04/20 00:19:17;;;;;;;15.70;8.32;;;;;;;;;;8333782;28;20041;-80
2022/04/20 00:23:21;;;;;;;19.52;8.88;;;;;;;;;;8334071;28;20465;-84
2022/04/20 00:27:23;;;;;;;21.42;9.20;;;;;;;;;;8325867;28;20397;-83
2022/04/20 00:31:26;;;;;;;17.63;7.88;;;;;;;;;;8277395;28;20050;-80
2022/04/20 00:35:28;;;;;;;13.75;8.25;;;;;;;;;;8276540;28;20046;-82
2022/04/20 00:39:33;;;;;;;17.42;8.65;;;;;;;;;;8267238;28;20077;-83
2022/04/20 00:43:37;;;;;;;20.40;8.35;;;;;;;;;;8282984;28;20095;-84
2022/04/20 00:47:42;;;;;;;16.55;9.07;;;;;;;;;;8285626;28;20559;-77
2022/04/20 00:51:53;;;;;;;16.85;8.75;;;;;;;;;;8279218;28;20049;-82
2022/04/20 00:55:57;;;;;;;16.15;8.50;;;;;;;;;;8285210;28;20050;-75
2022/04/20 01:00:02;;;;;;;20.40;8.43;;;;;;;;;;8294138;28;20042;-80
2022/04/20 01:04:05;;;;;;;21.30;9.68;;;;;;;;;;8284007;28;20050;-86
2022/04/20 01:08:08;;;;;;;12.68;8.20;;;;;;;;;;8267131;28;20452;-77
2022/04/20 01:12:13;;;;;;;17.20;8.20;;;;;;;;;;8267871;28;20053;-82
2022/04/20 01:16:16;;;;;;;17.40;8.15;;;;;;;;;;8278466;28;20053;-84
2022/04/20 01:20:19;;;;;;;;;;;;;;;;;;8298917;28;20049;-82
2022/04/20 01:24:23;;;;;;;20.80;9.15;;;;;;;;;;8298888;28;19925;-80
2022/04/20 01:28:25;;;;;;;20.55;9.90;;;;;;;;;;8293894;28;20046;-81
2022/04/20 01:32:28;;;;;;;23.88;9.80;;;;;;;;;;8295997;28;20489;-76
2022/04/20 01:36:30;;;;;;;19.15;8.73;;;;;;;;;;8284685;28;20069;-84
2022/04/20 01:40:34;;;;;;;19.52;9.57;;;;;;;;;;8298762;28;20056;-85
2022/04/20 01:44:37;;;;;;;17.98;9.05;;;;;;;;;;8298885;28;20056;-84
2022/04/20 01:48:39;;;;;;;18.77;9.38;;;;;;;;;;8298342;28;20050;-84
2022/04/20 01:52:42;;;;;;;20.95;10.27;;;;;;;;;;8298438;28;20097;-81
2022/04/20 01:56:47;;;;;;;21.38;9.05;;;;;;;;;;8298235;28;20049;-86
2022/04/20 02:00:50;;;;;;;18.90;8.50;;;;;;;;;;8298399;28;20053;-77
2022/04/20 02:04:52;;;;;;;19.27;9.57;;;;;;;;;;8298415;28;20481;-81
2022/04/20 02:08:55;;;;;;;20.77;9.27;;;;;;;;;;8297954;28;20541;-86
2022/04/20 02:12:59;;;;;;;24.33;10.30;;;;;;;;;;8298539;28;20392;-84
2022/04/20 02:17:01;;;;;;;25.45;12.05;;;;;;;;;;8298369;28;20053;-81
2022/04/20 02:21:04;;;;;;;26.88;11.70;;;;;;;;;;8298425;28;20046;-78
2022/04/20 02:25:08;;;;;;;23.92;11.75;;;;;;;;;;8297980;28;20046;-83
2022/04/20 02:29:12;;;;;;;23.23;12.60;;;;;;;;;;8298432;28;20049;-80
2022/04/20 02:33:15;;;;;;;29.83;13.02;;;;;;;;;;8297668;28;20042;-87
2022/04/20 02:37:18;;;;;;;33.50;15.13;;;;;;;;;;8297699;28;20050;-86
2022/04/20 02:41:20;;;;;;;35.58;15.15;;;;;;;;;;8297988;28;20413;-80
2022/04/20 02:45:25;;;;;;;29.92;14.00;;;;;;;;;;8297330;28;20068;-81
2022/04/20 02:49:27;;;;;;;36.65;14.73;;;;;;;;;;8298111;28;20042;-77
2022/04/20 02:53:30;;;;;;;33.45;15.32;;;;;;;;;;8304103;28;20053;-77
2022/04/20 02:57:32;;;;;;;41.00;15.88;;;;;;;;;;8303073;28;20038;-80
2022/04/20 03:01:36;;;;;;;36.97;14.90;;;;;;;;;;8303841;28;20053;-86
2022/04/20 03:05:39;;;;;;;30.48;12.85;;;;;;;;;;8303157;28;20046;-80
2022/04/20 03:09:42;;;;;;;29.40;14.70;;;;;;;;;;8302942;28;20060;-82
2022/04/20 03:13:44;;;;;;;31.75;14.25;;;;;;;;;;8303187;28;20046;-86
2022/04/20 03:17:48;;;;;;;38.25;14.93;;;;;;;;;;8303425;28;20050;-85
2022/04/20 03:21:50;;;;;;;31.88;13.70;;;;;;;;;;8303232;28;20050;-85
2022/04/20 03:25:53;;;;;;;30.40;13.80;;;;;;;;;;8303065;28;20057;-81
2022/04/20 03:29:55;;;;;;;31.65;14.55;;;;;;;;;;8302795;28;20046;-80
2022/04/20 03:34:00;;;;;;;30.00;14.57;;;;;;;;;;8302561;28;20137;-83
2022/04/20 03:38:03;;;;;;;35.78;16.80;;;;;;;;;;8302710;28;20050;-84
2022/04/20 03:42:07;;;;;;;30.92;14.43;;;;;;;;;;8302803;28;20060;-83
2022/04/20 03:46:11;;;;;;;32.72;13.70;;;;;;;;;;8302509;28;20057;-80
2022/04/20 03:50:15;;;;;;;35.58;15.65;;;;;;;;;;8302001;28;20107;-85
2022/04/20 03:54:17;;;;;;;38.38;17.90;;;;;;;;;;8302293;28;20046;-80
2022/04/20 03:58:20;;;;;;;35.85;16.90;;;;;;;;;;8302230;28;20184;-80
2022/04/20 04:02:23;;;;;;;38.25;17.23;;;;;;;;;;8301515;28;20050;-85
2022/04/20 04:06:27;;;;;;;36.03;16.13;;;;;;;;;;8301262;28;20460;-80
2022/04/20 04:10:30;;;;;;;37.22;17.27;;;;;;;;;;8301241;28;20050;-83
2022/04/20 04:14:37;;;;;;;34.47;16.13;;;;;;;;;;8301178;28;20046;-84
2022/04/20 04:18:39;;;;;;;34.08;16.23;;;;;;;;;;8301064;28;20049;-82
2022/04/20 04:22:43;;;;;;;37.65;16.80;;;;;;;;;;8298385;28;20049;-77
2022/04/20 04:26:45;;;;;;;39.15;17.05;;;;;;;;;;8299758;28;20061;-84
2022/04/20 04:30:48;;;;;;;41.83;18.90;;;;;;;;;;8300608;28;20048;-82
2022/04/20 04:34:50;;;;;;;44.72;19.70;;;;;;;;;;8300581;28;20133;-78
2022/04/20 04:38:54;;;;;;;42.03;19.95;;;;;;;;;;8300908;28;20050;-84
2022/04/20 04:42:57;;;;;;;37.60;18.02;;;;;;;;;;8300580;28;20054;-88
2022/04/20 04:51:19;;;;;;;31.75;14.93;;;;;;;;;;8300485;28;20045;-79
2022/04/20 04:55:24;;;;;;;33.13;15.25;;;;;;;;;;8304868;28;20129;-77
2022/04/20 04:59:26;;;;;;;26.35;13.95;;;;;;;;;;8285315;28;20038;-87
2022/04/20 05:03:29;;;;;;;30.00;14.52;;;;;;;;;;8305132;28;20049;-80
2022/04/20 05:07:31;;;;;;;27.05;13.60;;;;;;;;;;8304328;28;20058;-76
2022/04/20 05:11:35;;;;;;;30.48;14.13;;;;;;;;;;8306518;28;20049;-78
2022/04/20 05:15:38;;;;;;;28.98;15.00;;;;;;;;;;8302451;28;20068;-82
2022/04/20 05:19:41;;;;;;;31.73;14.48;;;;;;;;;;8305304;28;20497;-84
2022/04/20 05:23:43;;;;;;;35.53;15.63;;;;;;;;;;8302771;28;20056;-84
2022/04/20 05:27:47;;;;;;;33.58;15.57;;;;;;;;;;8298859;28;20054;-78
2022/04/20 05:31:52;;;;;;;36.97;16.98;;;;;;;;;;8299689;28;20045;-81
2022/04/20 05:35:54;;;;;;;35.65;18.40;;;;;;;;;;8299839;28;20493;-83
2022/04/20 05:44:18;;;;;;;37.13;17.92;;;;;;;;;;8295053;28;20053;-82
2022/04/20 05:48:21;;;;;;;37.83;18.73;;;;;;;;;;8297378;28;20413;-83
2022/04/20 05:52:24;;;;;;;51.97;22.23;;;;;;;;;;8299389;28;20578;-86
2022/04/20 05:56:27;;;;;;;33.35;18.20;;;;;;;;;;8298896;28;20050;-87
2022/04/20 06:00:32;;;;;;;41.50;18.90;;;;;;;;;;8298833;28;20046;-84
2022/04/20 06:04:35;;;;;;;41.78;21.50;;;;;;;;;;8298581;28;20068;-80
2022/04/20 06:08:38;;;;;;;43.00;21.67;;;;;;;;;;8290637;28;20056;-77
2022/04/20 06:12:41;;;;;;;42.50;22.55;;;;;;;;;;8294665;28;20072;-77
2022/04/20 06:16:46;;;;;;;45.22;22.42;;;;;;;;;;8288554;28;20062;-77
2022/04/20 06:20:49;;;;;;;44.92;22.83;;;;;;;;;;8272452;28;20045;-78
2022/04/20 06:24:52;;;;;;;42.00;19.83;;;;;;;;;;8295760;28;20112;-76
2022/04/20 06:28:55;;;;;;;47.33;23.92;;;;;;;;;;8277524;28;20086;-76
2022/04/20 06:32:59;;;;;;;44.88;23.00;;;;;;;;;;8297700;28;20524;-77
2022/04/20 06:37:05;;;;;;;51.63;23.42;;;;;;;;;;8304018;28;20092;-77
2022/04/20 06:41:08;;;;;;;44.80;22.75;;;;;;;;;;8304073;28;20049;-75
2022/04/20 06:45:11;;;;;;;47.05;24.38;;;;;;;;;;8303693;28;20050;-77
2022/04/20 06:49:17;;;;;;;46.42;24.38;;;;;;;;;;8303722;28;20520;-77
2022/04/20 07:01:59;;;;;;;43.88;22.73;;;;;;;;;;8292002;28;20052;-76
2022/04/20 07:06:05;;;;;;;43.28;23.83;;;;;;;;;;8302637;28;20046;-75
2022/04/20 07:10:09;;;;;;;54.58;25.05;;;;;;;;;;8303985;28;20057;-81
2022/04/20 07:14:15;;;;;;;47.00;24.90;;;;;;;;;;8303352;28;20053;-80
2022/04/20 07:18:18;;;;;;;44.63;21.90;;;;;;;;;;8303494;28;20049;-75
2022/04/20 07:22:22;;;;;;;56.00;26.67;;;;;;;;;;8302717;28;20046;-76
2022/04/20 07:26:26;;;;;;;47.40;23.88;;;;;;;;;;8302869;28;20455;-76
2022/04/20 07:30:29;;;;;;;55.88;25.90;;;;;;;;;;8302406;28;20056;-76
2022/04/20 07:34:32;;;;;;;54.42;26.55;;;;;;;;;;8302334;28;20041;-74
2022/04/20 07:38:38;;;;;;;48.60;24.00;;;;;;;;;;8301723;28;20046;-75
2022/04/20 07:42:41;;;;;;;39.80;20.75;;;;;;;;;;8302640;28;20542;-76
2022/04/20 07:46:44;;;;;;;44.50;20.75;;;;;;;;;;8294277;28;20042;-76
2022/04/20 07:50:47;;;;;;;40.97;19.90;;;;;;;;;;8301788;28;20042;-76
2022/04/20 07:54:51;;;;;;;31.10;16.95;;;;;;;;;;8301704;28;20050;-76
2022/04/20 07:58:54;;;;;;;33.30;18.15;;;;;;;;;;8301652;28;20253;-75
2022/04/20 08:03:11;;;;;;;28.15;16.00;;;;;;;;;;8301453;28;20070;-74
2022/04/20 08:07:13;;;;;;;26.17;14.27;;;;;;;;;;8301527;28;20057;-75
2022/04/20 08:11:18;;;;;;;14.25;8.65;;;;;;;;;;8301691;28;20046;-76
2022/04/20 08:15:20;;;;;;;18.00;11.23;;;;;;;;;;8301599;28;20402;-76
2022/04/20 08:19:24;;;;;;;19.30;9.95;;;;;;;;;;8301015;28;20046;-75
2022/04/20 08:23:29;;;;;;;18.55;10.70;;;;;;;;;;8300352;28;20052;-76
2022/04/20 08:27:34;;;;;;;22.05;13.52;;;;;;;;;;8294209;28;20052;-75
2022/04/20 08:31:37;;;;;;;21.23;11.73;;;;;;;;;;8301304;28;20069;-74
2022/04/20 08:35:41;;;;;;;20.13;11.48;;;;;;;;;;8300398;28;20049;-74
2022/04/20 08:39:45;;;;;;;22.20;13.27;;;;;;;;;;8299914;28;20053;-74
2022/04/20 08:43:50;;;;;;;21.50;10.98;;;;;;;;;;8297966;28;20456;-74
2022/04/20 08:47:53;;;;;;;20.88;11.30;;;;;;;;;;8298312;28;20046;-75
2022/04/20 09:00:38;;;;;;;19.05;10.02;;;;;;;;;;8267731;28;20120;-74
2022/04/20 09:04:41;;;;;;;16.95;9.48;;;;;;;;;;8296129;28;20053;-74
2022/04/20 09:08:45;;;;;;;21.27;11.23;;;;;;;;;;8299448;28;20109;-77
2022/04/20 09:13:02;;;;;;;16.23;8.80;;;;;;;;;;8297886;28;20049;-74
2022/04/20 09:17:12;;;;;;;13.30;7.88;;;;;;;;;;8291516;28;20065;-75
2022/04/20 09:21:16;;;;;;;10.80;6.90;;;;;;;;;;8289613;28;20073;-81
2022/04/20 09:25:20;;;;;;;14.27;8.88;;;;;;;;;;8268094;28;20046;-75
2022/04/20 09:29:25;;;;;;;13.07;7.28;;;;;;;;;;8260923;28;20050;-76
2022/04/20 09:33:50;;;;;;;11.88;7.20;;;;;;;;;;8261712;28;20074;-78
2022/04/20 09:38:07;;;;;;;8.80;5.50;;;;;;;;;;8260583;28;20093;-73
2022/04/20 09:42:11;;;;;;;8.02;4.82;;;;;;;;;;8261275;28;20054;-75
2022/04/20 09:50:39;;;;;;;12.48;6.85;;;;;;;;;;8261448;28;20055;-76
2022/04/20 09:54:53;;;;;;;10.20;6.53;;;;;;;;;;8261022;28;20057;-75
2022/04/20 09:59:01;;;;;;;16.73;7.60;;;;;;;;;;8265857;28;20069;-75
2022/04/20 10:03:03;;;;;;;15.48;7.07;;;;;;;;;;8266595;28;20054;-75
2022/04/20 10:07:09;;;;;;;11.75;6.28;;;;;;;;;;8271704;28;20156;-78
2022/04/20 10:11:15;;;;;;;10.43;6.22;;;;;;;;;;8271079;28;20070;-77
2022/04/20 10:19:41;;;;;;;8.73;5.55;;;;;;;;;;8263670;28;20141;-77
2022/04/20 10:23:48;;;;;;;5.93;3.75;;;;;;;;;;8268884;28;20046;-77
2022/04/20 10:28:10;;;;;;;18.58;7.53;;;;;;;;;;8284194;28;20390;-76
2022/04/20 10:32:22;;;;;;;10.13;5.00;;;;;;;;;;8286386;28;20049;-77
2022/04/20 10:36:30;;;;;;;10.55;4.45;;;;;;;;;;8285991;28;20052;-76
2022/04/20 10:40:35;;;;;;;7.90;4.18;;;;;;;;;;8286914;28;20050;-76
2022/04/20 10:45:00;;;;;;;8.75;4.53;;;;;;;;;;8281966;28;20446;-76
2022/04/20 10:49:17;;;;;;;19.75;5.55;;;;;;;;;;8272309;28;20182;-77
2022/04/20 10:53:23;;;;;;;11.32;4.53;;;;;;;;;;8276865;28;20060;-78
2022/04/20 10:57:36;;;;;;;21.63;7.15;;;;;;;;;;8286415;28;20057;-77
2022/04/20 11:02:07;;;;;;;8.85;4.30;;;;;;;;;;8264584;28;20073;-76
2022/04/20 11:06:13;;;;;;;7.72;3.70;;;;;;;;;;8283326;28;20054;-79
2022/04/20 11:10:16;;;;;;;5.57;3.75;;;;;;;;;;8292783;28;20450;-77
2022/04/20 11:19:13;;;;;;;8.25;4.50;;;;;;;;;;8265872;28;20128;-78
2022/04/20 11:23:25;;;;;;;11.63;5.57;;;;;;;;;;8267672;28;20057;-76
2022/04/20 11:27:37;;;;;;;11.32;5.63;;;;;;;;;;8296619;28;20085;-76
2022/04/20 11:31:48;;;;;;;12.27;5.18;;;;;;;;;;8276525;28;20561;-78
2022/04/20 11:36:01;;;;;;;10.80;4.85;;;;;;;;;;8265540;28;20057;-76
2022/04/20 11:40:13;;;;;;;8.50;4.50;;;;;;;;;;8265673;28;20061;-78
2022/04/20 11:44:21;;;;;;;9.43;5.87;;;;;;;;;;8265604;28;20089;-77
2022/04/20 11:48:26;;;;;;;8.80;5.20;;;;;;;;;;8265073;28;20402;-76
2022/04/20 11:52:36;;;;;;;13.00;5.55;;;;;;;;;;8264984;28;20414;-76
2022/04/20 11:56:42;;;;;;;7.73;4.93;;;;;;;;;;8284708;28;20053;-77
2022/04/20 12:00:46;;;;;;;10.30;6.15;;;;;;;;;;8296910;28;20046;-78
2022/04/20 12:05:05;;;;;;;12.52;7.15;;;;;;;;;;8294753;28;20049;-77
2022/04/20 12:09:09;;;;;;;12.00;8.27;;;;;;;;;;8272464;28;20112;-79
2022/04/20 12:13:12;;;;;;;10.70;6.70;;;;;;;;;;8275090;28;20042;-77
2022/04/20 12:17:20;;;;;;;10.02;6.45;;;;;;;;;;8275058;28;20050;-77
2022/04/20 12:21:48;;;;;;;11.05;5.97;;;;;;;;;;8266034;28;20046;-77
2022/04/20 12:25:54;;;;;;;11.35;6.95;;;;;;;;;;8290450;28;20103;-75
2022/04/20 12:29:59;;;;;;;15.15;7.88;;;;;;;;;;8273228;28;20401;-76
2022/04/20 12:34:06;;;;;;;14.95;8.10;;;;;;;;;;8265500;28;20510;-78
2022/04/20 12:38:13;;;;;;;9.18;6.65;;;;;;;;;;8267727;28;20145;-78
2022/04/20 12:42:18;;;;;;;13.80;6.57;;;;;;;;;;8267739;28;20125;-77
2022/04/20 12:46:21;;;;;;;10.65;6.45;;;;;;;;;;8280349;28;20050;-77
2022/04/20 12:50:24;;;;;;;10.18;6.22;;;;;;;;;;8300234;28;20099;-77
2022/04/20 12:54:29;;;;;;;10.20;6.75;;;;;;;;;;8299669;28;20100;-77
2022/04/20 13:03:01;;;;;;;12.00;6.60;;;;;;;;;;8299685;28;20049;-76
2022/04/20 13:07:05;;;;;;;21.42;9.23;;;;;;;;;;8298052;28;20061;-77
2022/04/20 13:11:14;;;;;;;18.08;7.78;;;;;;;;;;8300019;28;20046;-77
2022/04/20 13:15:17;;;;;;;13.13;7.05;;;;;;;;;;8298888;28;20046;-76
2022/04/20 13:19:23;;;;;;;8.15;5.18;;;;;;;;;;8299225;28;20123;-75
2022/04/20 13:23:26;;;;;;;11.18;6.47;;;;;;;;;;8299046;28;20412;-76
2022/04/20 13:31:54;;;;;;;12.23;6.93;;;;;;;;;;8299799;28;20073;-76
2022/04/20 13:35:57;;;;;;;9.13;4.90;;;;;;;;;;8297719;28;20050;-77
2022/04/20 13:40:00;;;;;;;13.73;6.70;;;;;;;;;;8301232;28;20072;-76
2022/04/20 13:44:05;;;;;;;13.85;6.30;;;;;;;;;;8300385;28;20056;-76
2022/04/20 13:48:10;;;;;;;6.40;3.97;;;;;;;;;;8296958;28;20054;-77
2022/04/20 13:52:14;;;;;;;11.18;4.80;;;;;;;;;;8297561;28;20129;-77
2022/04/20 13:56:17;;;;;;;5.22;3.58;;;;;;;;;;8298235;28;20057;-77
2022/04/20 14:00:22;;;;;;;12.68;5.50;;;;;;;;;;8298287;28;20045;-77
2022/04/20 14:04:25;;;;;;;6.90;3.40;;;;;;;;;;8298393;28;20440;-77
2022/04/20 14:08:29;;;;;;;7.03;3.88;;;;;;;;;;8297727;28;20057;-78
2022/04/20 14:12:32;;;;;;;19.63;8.30;;;;;;;;;;8298405;28;20045;-77
2022/04/20 14:16:41;;;;;;;6.25;3.95;;;;;;;;;;8298807;28;20056;-76
2022/04/20 14:20:44;;;;;;;17.27;7.93;;;;;;;;;;8297782;28;20046;-77
2022/04/20 14:24:48;;;;;;;12.82;7.20;;;;;;;;;;8297682;28;20053;-77
2022/04/20 14:33:15;;;;;;;12.13;5.75;;;;;;;;;;8297662;28;20049;-77
2022/04/20 14:37:21;;;;;;;9.15;5.40;;;;;;;;;;8296323;28;20053;-76
2022/04/20 14:41:24;;;;;;;9.02;5.28;;;;;;;;;;8297654;28;20549;-77
2022/04/20 14:45:29;;;;;;;13.07;7.00;;;;;;;;;;8298306;28;20398;-76
2022/04/20 14:49:35;;;;;;;9.45;5.20;;;;;;;;;;8304178;28;20522;-76
2022/04/20 14:53:39;;;;;;;8.30;5.00;;;;;;;;;;8303749;28;20076;-77
2022/04/20 14:57:43;;;;;;;8.02;4.47;;;;;;;;;;8303461;28;20096;-77
2022/04/20 15:01:47;;;;;;;9.68;5.43;;;;;;;;;;8303508;28;20558;-77
2022/04/20 15:05:52;;;;;;;7.25;4.32;;;;;;;;;;8303146;28;20057;-75
2022/04/20 15:09:56;;;;;;;7.13;4.18;;;;;;;;;;8302971;28;20076;-74
2022/04/20 15:14:00;;;;;;;9.82;5.20;;;;;;;;;;8303034;28;20053;-77
2022/04/20 15:18:04;;;;;;;12.88;7.28;;;;;;;;;;8303318;28;20489;-76
2022/04/20 15:22:11;;;;;;;18.35;8.93;;;;;;;;;;8302907;28;20050;-77
2022/04/20 15:26:14;;;;;;;28.58;15.98;;;;;;;;;;8302698;28;20046;-77
2022/04/20 15:30:19;;;;;;;19.75;10.57;;;;;;;;;;8303103;28;20391;-77
2022/04/20 15:34:23;;;;;;;15.18;7.43;;;;;;;;;;8302384;28;20426;-77
2022/04/20 15:38:28;;;;;;;56.08;24.80;;;;;;;;;;8302875;28;20069;-75
2022/04/20 15:42:37;;;;;;;25.90;12.15;;;;;;;;;;8302195;28;20042;-77
2022/04/20 15:46:42;;;;;;;32.53;15.68;;;;;;;;;;8301903;28;20060;-78
2022/04/20 15:50:46;;;;;;;30.73;14.32;;;;;;;;;;8301976;28;20046;-77
2022/04/20 16:00:14;;;;;;;30.17;15.27;;;;;;;;;;8302237;28;20100;-78
2022/04/20 16:03:37;;;;;;;36.78;19.67;;;;;;;;;;8301482;28;20061;-77
2022/04/20 16:07:40;;;;;;;24.35;13.40;;;;;;;;;;8301223;28;20061;-77
2022/04/20 16:11:45;;;;;;;28.85;15.48;;;;;;;;;;8301773;28;20459;-77
2022/04/20 16:15:49;;;;;;;13.75;8.27;;;;;;;;;;8301214;28;20116;-76
2022/04/20 16:19:53;;;;;;;22.27;13.55;;;;;;;;;;8301130;28;20141;-78
2022/04/20 16:23:56;;;;;;;34.33;17.50;;;;;;;;;;8300946;28;20073;-77
2022/04/20 16:28:02;;;;;;;26.60;14.65;;;;;;;;;;8300745;28;20092;-77
2022/04/20 16:32:08;;;;;;;18.73;12.48;;;;;;;;;;8300697;28;20077;-79
2022/04/20 16:36:11;;;;;;;19.52;9.48;;;;;;;;;;8300575;28;20037;-76
2022/04/20 16:40:14;;;;;;;12.73;7.53;;;;;;;;;;8300366;28;20485;-77
2022/04/20 16:44:19;;;;;;;16.13;9.18;;;;;;;;;;8300792;28;20042;-75
2022/04/20 16:48:23;;;;;;;17.33;9.82;;;;;;;;;;8300114;28;20057;-75
2022/04/20 16:52:27;;;;;;;17.02;9.48;;;;;;;;;;8300039;28;20129;-77
2022/04/20 16:56:33;;;;;;;19.55;11.43;;;;;;;;;;8300069;28;20049;-77
2022/04/20 17:00:43;;;;;;;21.73;12.20;;;;;;;;;;8299768;28;20448;-77
2022/04/20 17:04:47;;;;;;;28.10;14.00;;;;;;;;;;8299729;28;20053;-76
2022/04/20 17:08:50;;;;;;;31.83;15.57;;;;;;;;;;8298644;28;20062;-76
2022/04/20 17:12:53;;;;;;;37.53;17.80;;;;;;;;;;8299942;28;20069;-77
2022/04/20 17:16:59;;;;;;;28.30;13.30;;;;;;;;;;8298566;28;20073;-77
2022/04/20 17:29:44;;;;;;;28.90;15.70;;;;;;;;;;8298927;28;20077;-76
2022/04/20 17:33:52;;;;;;;31.65;18.15;;;;;;;;;;8299405;28;20069;-76
2022/04/20 17:37:55;;;;;;;31.08;18.23;;;;;;;;;;8298815;28;20493;-75
2022/04/20 17:41:59;;;;;;;27.50;15.05;;;;;;;;;;8298694;28;20053;-75
2022/04/20 17:46:02;;;;;;;30.63;17.17;;;;;;;;;;8298518;28;20034;-78
2022/04/20 17:50:09;;;;;;;30.67;18.27;;;;;;;;;;8299414;28;20060;-77
2022/04/20 17:54:12;;;;;;;33.03;18.55;;;;;;;;;;8298844;28;20053;-77
2022/04/20 17:58:16;;;;;;;34.65;19.45;;;;;;;;;;8298297;28;20272;-78
2022/04/20 18:02:21;;;;;;;33.53;17.73;;;;;;;;;;8298227;28;20046;-77
2022/04/20 18:06:27;;;;;;;44.55;20.58;;;;;;;;;;8297803;28;20046;-77
2022/04/20 18:10:30;;;;;;;28.92;16.45;;;;;;;;;;8298534;28;20046;-77
2022/04/20 18:14:34;;;;;;;29.30;17.27;;;;;;;;;;8297955;28;20049;-76
2022/04/20 18:18:37;;;;;;;34.05;18.08;;;;;;;;;;8297881;28;20085;-76
2022/04/20 18:22:42;;;;;;;33.05;19.40;;;;;;;;;;8307373;28;20124;-77
2022/04/20 18:26:47;;;;;;;31.45;17.70;;;;;;;;;;8308647;28;20046;-78
2022/04/20 18:30:52;;;;;;;37.28;20.70;;;;;;;;;;8308491;28;20053;-76
2022/04/20 18:34:56;;;;;;;37.38;20.30;;;;;;;;;;8308413;28;20417;-77
2022/04/20 18:39:06;;;;;;;31.73;16.63;;;;;;;;;;8308434;28;20266;-77
2022/04/20 18:43:10;;;;;;;37.80;22.15;;;;;;;;;;8308285;28;20045;-77
2022/04/20 18:47:15;;;;;;;29.73;16.95;;;;;;;;;;8308143;28;20050;-77
2022/04/20 18:51:20;;;;;;;38.58;21.88;;;;;;;;;;8308291;28;20103;-77
2022/04/20 18:59:59;;;;;;;31.17;18.30;;;;;;;;;;8305080;28;20124;-76
2022/04/20 19:04:04;;;;;;;37.50;21.08;;;;;;;;;;8307890;28;20100;-78
2022/04/20 19:08:08;;;;;;;47.08;24.88;;;;;;;;;;8307548;28;20072;-77
2022/04/20 19:12:14;;;;;;;31.15;17.88;;;;;;;;;;8308022;28;20478;-77
2022/04/20 19:16:17;;;;;;;31.67;17.83;;;;;;;;;;8307877;28;20049;-76
2022/04/20 19:20:21;;;;;;;34.03;17.77;;;;;;;;;;8307736;28;20046;-76
2022/04/20 19:24:25;;;;;;;33.13;16.77;;;;;;;;;;8307658;28;20073;-76
2022/04/20 19:28:30;;;;;;;46.45;20.80;;;;;;;;;;8307584;28;20073;-76
2022/04/20 19:32:34;;;;;;;34.80;16.85;;;;;;;;;;8304392;28;20046;-76
2022/04/20 19:36:40;;;;;;;61.30;30.70;;;;;;;;;;8302505;28;20065;-76
2022/04/20 19:40:45;;;;;;;46.88;25.48;;;;;;;;;;8302328;28;20068;-77
2022/04/20 19:44:51;;;;;;;32.78;16.60;;;;;;;;;;8302216;28;20104;-76
2022/04/20 19:48:55;;;;;;;32.45;17.08;;;;;;;;;;8302046;28;20386;-77
2022/04/20 19:52:58;;;;;;;26.45;14.52;;;;;;;;;;8302479;28;20049;-76
2022/04/20 19:57:06;;;;;;;29.60;16.15;;;;;;;;;;8302283;28;20449;-77
2022/04/20 20:01:13;;;;;;;28.55;15.95;;;;;;;;;;8301781;28;20054;-77
2022/04/20 20:05:16;;;;;;;33.00;17.80;;;;;;;;;;8301644;28;20041;-77
2022/04/20 20:09:22;;;;;;;32.20;16.67;;;;;;;;;;8301148;28;20058;-77
2022/04/20 20:13:26;;;;;;;44.88;20.90;;;;;;;;;;8301368;28;20056;-77
2022/04/20 20:17:31;;;;;;;85.30;30.25;;;;;;;;;;8301186;28;20049;-77
2022/04/20 20:21:35;;;;;;;71.72;27.98;;;;;;;;;;8301425;28;20046;-77
2022/04/20 20:30:15;;;;;;;100.80;33.78;;;;;;;;;;8200490;29;20075;-77
2022/04/20 20:34:20;;;;;;;73.28;27.95;;;;;;;;;;8246161;28;20049;-78
2022/04/20 20:38:24;;;;;;;47.20;19.73;;;;;;;;;;8300944;28;20453;-76
2022/04/20 20:42:28;;;;;;;36.10;18.95;;;;;;;;;;8300702;28;20052;-77
2022/04/20 20:46:31;;;;;;;64.68;28.77;;;;;;;;;;8299348;28;20053;-76
2022/04/20 20:50:36;;;;;;;63.20;28.73;;;;;;;;;;8300676;28;20489;-77
2022/04/20 20:54:39;;;;;;;55.97;27.45;;;;;;;;;;8300006;28;20058;-78
2022/04/20 20:58:43;;;;;;;59.15;25.73;;;;;;;;;;8300001;28;20045;-77
2022/04/20 21:02:46;;;;;;;37.58;18.98;;;;;;;;;;8299826;28;20042;-76
2022/04/20 21:06:50;;;;;;;35.95;18.42;;;;;;;;;;8299713;28;20058;-77
2022/04/20 21:10:55;;;;;;;31.73;17.00;;;;;;;;;;8299580;28;20060;-74
2022/04/20 21:14:58;;;;;;;36.13;19.20;;;;;;;;;;8299940;28;20053;-78
2022/04/20 21:19:02;;;;;;;36.75;20.40;;;;;;;;;;8299194;28;20095;-77
2022/04/20 21:23:07;;;;;;;40.65;20.88;;;;;;;;;;8299656;28;20481;-77
2022/04/20 21:27:10;;;;;;;38.33;19.00;;;;;;;;;;8299125;28;20049;-77
2022/04/20 21:31:15;;;;;;;40.90;21.25;;;;;;;;;;8298952;28;20065;-77
2022/04/20 21:35:17;;;;;;;35.67;18.30;;;;;;;;;;8298885;28;20057;-75
2022/04/20 21:39:22;;;;;;;30.80;16.70;;;;;;;;;;8298851;28;20053;-76
2022/04/20 21:43:25;;;;;;;37.60;18.73;;;;;;;;;;8298615;28;20049;-76
2022/04/20 21:47:29;;;;;;;31.85;17.25;;;;;;;;;;8298417;28;20049;-77
2022/04/20 21:51:31;;;;;;;39.05;19.15;;;;;;;;;;8298432;28;20061;-77
2022/04/20 21:55:36;;;;;;;33.45;17.73;;;;;;;;;;8298461;28;20466;-77
2022/04/20 21:59:39;;;;;;;29.48;16.25;;;;;;;;;;8298700;28;20485;-77
2022/04/20 22:08:27;;;;;;;28.85;14.25;;;;;;;;;;8297734;28;20062;-77
2022/04/20 22:12:31;;;;;;;27.70;13.57;;;;;;;;;;8298517;28;20046;-75
2022/04/20 22:16:34;;;;;;;28.35;14.15;;;;;;;;;;8297923;28;20054;-78
2022/04/20 22:20:37;;;;;;;29.45;14.30;;;;;;;;;;8297865;28;20058;-76
2022/04/20 22:24:39;;;;;;;32.22;15.07;;;;;;;;;;8298338;28;20046;-77
2022/04/20 22:28:43;;;;;;;30.17;14.50;;;;;;;;;;8298170;28;20132;-77
2022/04/20 22:32:47;;;;;;;31.23;15.63;;;;;;;;;;8298171;28;20046;-76
2022/04/20 22:36:51;;;;;;;31.88;14.23;;;;;;;;;;8297778;28;20046;-77
2022/04/20 22:40:53;;;;;;;30.23;14.25;;;;;;;;;;8298508;28;20046;-77
2022/04/20 22:44:58;;;;;;;27.98;14.77;;;;;;;;;;8298097;28;20409;-77
2022/04/20 22:49:01;;;;;;;32.13;14.70;;;;;;;;;;8297459;28;20042;-76
2022/04/20 22:53:05;;;;;;;32.17;14.18;;;;;;;;;;8297315;28;20485;-77
2022/04/20 22:57:07;;;;;;;33.15;14.90;;;;;;;;;;8297410;28;20104;-76
2022/04/20 23:01:11;;;;;;;33.33;15.20;;;;;;;;;;8297711;28;20070;-75
2022/04/20 23:05:14;;;;;;;30.88;14.50;;;;;;;;;;8297528;28;20496;-77
2022/04/20 23:09:17;;;;;;;31.42;15.27;;;;;;;;;;8301526;28;20592;-76
2022/04/20 23:13:20;;;;;;;33.35;13.95;;;;;;;;;;8303778;28;20149;-77
2022/04/20 23:17:24;;;;;;;35.25;14.70;;;;;;;;;;8303134;28;20399;-76
2022/04/20 23:21:27;;;;;;;32.83;14.23;;;;;;;;;;8303498;28;20049;-77
2022/04/20 23:29:49;;;;;;;32.28;15.57;;;;;;;;;;8303076;28;20050;-77
2022/04/20 23:33:53;;;;;;;33.92;15.07;;;;;;;;;;8302520;28;20045;-78
2022/04/20 23:37:58;;;;;;;31.77;14.63;;;;;;;;;;8302577;28;20052;-76
2022/04/20 23:42:00;;;;;;;30.40;13.93;;;;;;;;;;8302853;28;20046;-77
2022/04/20 23:46:03;;;;;;;34.80;14.63;;;;;;;;;;8302651;28;20076;-77
2022/04/20 23:50:24;;;;;;;30.98;14.52;;;;;;;;;;8301940;28;20054;-78
2022/04/20 23:54:26;;;;;;;30.63;14.77;;;;;;;;;;8302004;28;20050;-76
2022/04/20 23:58:29;;;;;;;28.83;14.10;;;;;;;;;;8302197;28;20050;-77
